createdAt,value
2022-11-05T00:02:36.290Z,11.40
2022-11-05T00:05:25.251Z,10.60
2022-11-05T00:08:14.223Z,10.55
2022-11-05T00:10:44.405Z,11.32
2022-11-05T00:13:34.881Z,10.02
2022-11-05T00:16:42.421Z,11.27
2022-11-05T00:19:13.696Z,9.75
2022-11-05T00:21:59.690Z,10.07
2022-11-05T00:24:46.375Z,10.13
2022-11-05T00:27:16.286Z,9.83
2022-11-05T00:29:46.031Z,9.88
2022-11-05T00:32:15.713Z,9.30
2022-11-05T00:34:45.566Z,9.00
2022-11-05T00:37:15.370Z,9.38
2022-11-05T00:39:45.388Z,8.25
2022-11-05T00:42:33.703Z,8.35
2022-11-05T00:45:06.737Z,7.85
2022-11-05T00:47:54.491Z,8.38
2022-11-05T00:50:25.363Z,7.43
2022-11-05T00:53:00.613Z,7.72
2022-11-05T00:55:46.212Z,7.72
2022-11-05T00:58:21.064Z,8.07
2022-11-05T01:00:57.748Z,7.15
2022-11-05T01:03:34.455Z,7.80
2022-11-05T01:06:11.803Z,7.80
2022-11-05T01:08:45.614Z,7.10
2022-11-05T01:11:35.374Z,7.57
2022-11-05T01:14:12.166Z,8.05
2022-11-05T01:16:43.173Z,7.20
2022-11-05T01:19:13.854Z,7.15
2022-11-05T01:21:42.969Z,7.68
2022-11-05T01:24:12.772Z,7.45
2022-11-05T01:26:42.477Z,8.25
2022-11-05T01:29:12.240Z,9.32
2022-11-05T01:31:42.212Z,6.95
2022-11-05T01:34:12.015Z,7.95
2022-11-05T01:36:41.974Z,7.68
2022-11-05T01:39:11.711Z,7.18
2022-11-05T01:41:41.442Z,7.07
2022-11-05T01:44:54.470Z,8.95
2022-11-05T01:47:48.535Z,7.63
2022-11-05T01:50:59.452Z,8.73
2022-11-05T01:54:02.928Z,8.23
2022-11-05T01:57:14.077Z,8.63
2022-11-05T01:59:59.476Z,8.38
2022-11-05T02:02:31.677Z,7.93
2022-11-05T02:05:07.127Z,8.77
2022-11-05T02:07:36.769Z,8.95
2022-11-05T02:10:18.055Z,9.93
2022-11-05T02:12:48.644Z,9.50
2022-11-05T02:16:03.592Z,9.38
2022-11-05T02:19:06.649Z,8.60
2022-11-05T02:22:04.534Z,9.05
2022-11-05T02:24:52.351Z,9.50
2022-11-05T02:28:18.344Z,9.18
2022-11-05T02:31:43.158Z,9.40
2022-11-05T02:34:34.043Z,9.05
2022-11-05T02:37:44.170Z,10.10
2022-11-05T02:40:43.974Z,9.77
2022-11-05T02:43:41.421Z,9.88
2022-11-05T02:46:45.899Z,9.35
2022-11-05T02:49:24.522Z,9.70
2022-11-05T02:55:03.550Z,9.07
2022-11-05T02:57:37.021Z,9.65
2022-11-05T03:00:52.437Z,9.93
2022-11-05T03:03:36.652Z,9.38
2022-11-05T03:06:22.508Z,10.30
2022-11-05T03:09:29.083Z,9.38
2022-11-05T03:12:26.729Z,10.10
2022-11-05T03:15:42.010Z,10.02
2022-11-05T03:18:28.391Z,9.30
2022-11-05T03:21:20.469Z,9.82
2022-11-05T03:24:08.221Z,8.60
2022-11-05T03:27:10.832Z,8.70
2022-11-05T03:29:58.467Z,9.02
2022-11-05T03:32:36.485Z,8.50
2022-11-05T03:35:20.741Z,7.80
2022-11-05T03:38:05.286Z,8.63
2022-11-05T03:40:42.816Z,8.93
2022-11-05T03:43:15.479Z,9.43
2022-11-05T03:46:02.221Z,8.68
2022-11-05T03:48:46.466Z,7.75
2022-11-05T03:52:01.657Z,8.52
2022-11-05T03:54:34.181Z,8.27
2022-11-05T03:57:13.190Z,7.25
2022-11-05T03:59:50.090Z,7.68
2022-11-05T04:02:26.801Z,7.55
2022-11-05T04:04:57.083Z,7.35
2022-11-05T04:07:45.786Z,7.10
2022-11-05T04:10:34.566Z,7.60
2022-11-05T04:13:23.323Z,7.85
2022-11-05T04:16:15.229Z,6.75
2022-11-05T04:18:45.292Z,7.25
2022-11-05T04:21:34.128Z,7.50
2022-11-05T04:24:10.136Z,7.95
2022-11-05T04:26:44.832Z,7.20
2022-11-05T04:29:33.663Z,8.50
2022-11-05T04:32:03.815Z,7.72
2022-11-05T04:34:33.793Z,6.88
2022-11-05T04:37:03.838Z,7.85
2022-11-05T04:39:33.819Z,7.90
2022-11-05T04:42:04.772Z,7.50
2022-11-05T04:44:34.983Z,7.25
2022-11-05T04:47:05.013Z,6.43
2022-11-05T04:49:35.002Z,6.88
2022-11-05T04:52:05.246Z,6.53
2022-11-05T04:54:35.242Z,6.80
2022-11-05T04:57:05.253Z,7.20
2022-11-05T04:59:35.255Z,7.25
2022-11-05T05:02:05.461Z,6.10
2022-11-05T05:04:35.486Z,7.30
2022-11-05T05:07:05.965Z,5.90
2022-11-05T05:09:35.934Z,7.10
2022-11-05T05:12:09.749Z,6.15
2022-11-05T05:14:40.165Z,6.78
2022-11-05T05:17:10.345Z,6.03
2022-11-05T05:19:58.985Z,6.13
2022-11-05T05:22:29.384Z,5.65
2022-11-05T05:25:00.175Z,5.28
2022-11-05T05:27:30.929Z,7.65
2022-11-05T05:30:00.957Z,5.53
2022-11-05T05:32:30.981Z,5.32
2022-11-05T05:35:00.955Z,5.53
2022-11-05T05:37:30.915Z,5.47
2022-11-05T05:40:00.906Z,5.93
2022-11-05T05:42:31.043Z,7.43
2022-11-05T05:45:01.126Z,5.38
2022-11-05T05:47:31.397Z,5.78
2022-11-05T05:50:01.419Z,5.72
2022-11-05T05:52:32.113Z,5.97
2022-11-05T05:55:02.204Z,6.50
2022-11-05T05:57:32.203Z,5.60
2022-11-05T06:00:02.375Z,5.28
2022-11-05T06:02:32.594Z,5.55
2022-11-05T06:05:02.723Z,4.75
2022-11-05T06:07:37.085Z,5.38
2022-11-05T06:10:08.149Z,5.20
2022-11-05T06:12:38.421Z,4.53
2022-11-05T06:15:08.987Z,6.00
2022-11-05T06:17:41.370Z,5.60
2022-11-05T06:20:13.473Z,5.28
2022-11-05T06:22:43.719Z,5.07
2022-11-05T06:25:13.730Z,4.50
2022-11-05T06:27:43.847Z,5.15
2022-11-05T06:30:14.296Z,6.03
2022-11-05T06:32:45.346Z,6.05
2022-11-05T06:35:15.561Z,6.20
2022-11-05T06:37:45.837Z,5.10
2022-11-05T06:40:15.947Z,5.32
2022-11-05T06:42:45.984Z,5.15
2022-11-05T06:45:16.162Z,5.13
2022-11-05T06:47:46.320Z,5.57
2022-11-05T06:50:16.388Z,4.38
2022-11-05T06:53:02.311Z,4.70
2022-11-05T06:55:32.696Z,5.03
2022-11-05T06:58:02.961Z,5.22
2022-11-05T07:00:33.407Z,5.05
2022-11-05T07:03:07.252Z,4.93
2022-11-05T07:05:48.645Z,6.22
2022-11-05T07:08:18.737Z,4.82
2022-11-05T07:10:51.693Z,5.72
2022-11-05T07:13:24.819Z,5.75
2022-11-05T07:15:55.362Z,6.00
2022-11-05T07:18:25.810Z,5.63
2022-11-05T07:20:55.823Z,5.45
2022-11-05T07:23:25.835Z,5.43
2022-11-05T07:25:56.061Z,5.60
2022-11-05T07:28:26.173Z,5.18
2022-11-05T07:30:58.855Z,5.47
2022-11-05T07:33:35.239Z,5.20
2022-11-05T07:36:07.404Z,6.15
2022-11-05T07:38:37.515Z,6.35
2022-11-05T07:41:07.517Z,6.85
2022-11-05T07:43:37.576Z,6.57
2022-11-05T07:46:12.665Z,6.13
2022-11-05T07:48:43.840Z,7.35
2022-11-05T07:51:13.926Z,6.43
2022-11-05T07:53:45.560Z,7.45
2022-11-05T07:56:17.124Z,6.63
2022-11-05T07:58:47.127Z,6.75
2022-11-05T08:01:17.407Z,7.25
2022-11-05T08:03:47.740Z,6.82
2022-11-05T08:06:17.880Z,7.72
2022-11-05T08:08:48.074Z,8.15
2022-11-05T08:11:19.051Z,7.25
2022-11-05T08:13:49.136Z,7.90
2022-11-05T08:16:19.271Z,7.05
2022-11-05T08:18:52.364Z,7.05
2022-11-05T08:21:22.399Z,5.63
2022-11-05T08:23:55.368Z,6.85
2022-11-05T08:26:25.399Z,6.68
2022-11-05T08:28:55.523Z,8.05
2022-11-05T08:31:25.514Z,7.13
2022-11-05T08:34:02.322Z,5.63
2022-11-05T08:36:35.027Z,6.57
2022-11-05T08:39:04.987Z,6.72
2022-11-05T08:41:35.372Z,6.70
2022-11-05T08:44:10.930Z,6.25
2022-11-05T08:46:41.577Z,5.78
2022-11-05T08:49:12.046Z,7.18
2022-11-05T08:51:45.066Z,6.45
2022-11-05T08:54:14.301Z,6.70
2022-11-05T08:56:45.110Z,6.13
2022-11-05T08:59:15.031Z,5.90
2022-11-05T09:01:44.947Z,6.07
2022-11-05T09:04:14.852Z,6.00
2022-11-05T09:06:45.022Z,6.22
2022-11-05T09:09:15.116Z,6.70
2022-11-05T09:12:11.214Z,6.55
2022-11-05T09:14:34.934Z,9.30
2022-11-05T09:17:05.627Z,6.15
2022-11-05T09:19:39.647Z,6.18
2022-11-05T09:22:12.834Z,6.50
2022-11-05T09:24:44.042Z,5.78
2022-11-05T09:27:14.777Z,5.38
2022-11-05T09:29:44.147Z,5.43
2022-11-05T09:32:18.599Z,5.65
2022-11-05T09:34:49.167Z,5.70
2022-11-05T09:37:18.383Z,4.90
2022-11-05T09:39:50.829Z,5.88
2022-11-05T09:42:32.772Z,4.97
2022-11-05T09:45:19.266Z,5.07
2022-11-05T09:48:07.218Z,4.63
2022-11-05T09:50:45.629Z,5.32
2022-11-05T09:53:21.985Z,4.75
2022-11-05T09:56:00.868Z,5.20
2022-11-05T09:58:50.736Z,4.13
2022-11-05T10:01:34.957Z,4.43
2022-11-05T10:04:27.230Z,3.67
2022-11-05T10:07:07.232Z,4.47
2022-11-05T10:09:47.990Z,4.38
2022-11-05T10:13:15.875Z,3.97
2022-11-05T10:16:25.302Z,2.92
2022-11-05T10:19:15.375Z,2.83
2022-11-05T10:22:05.540Z,3.30
2022-11-05T10:24:35.908Z,3.65
2022-11-05T10:27:06.679Z,2.80
2022-11-05T10:29:37.852Z,3.42
2022-11-05T10:32:11.011Z,2.80
2022-11-05T10:34:43.194Z,3.40
2022-11-05T10:37:13.544Z,2.95
2022-11-05T10:39:43.695Z,3.00
2022-11-05T10:42:36.845Z,2.40
2022-11-05T10:45:37.886Z,2.22
2022-11-05T10:48:19.688Z,2.78
2022-11-05T10:50:49.901Z,2.55
2022-11-05T10:54:01.982Z,2.47
2022-11-05T10:56:41.075Z,2.42
2022-11-05T10:59:29.066Z,2.53
2022-11-05T11:02:22.068Z,2.53
2022-11-05T11:04:58.489Z,2.50
2022-11-05T11:07:28.690Z,2.42
2022-11-05T11:09:59.655Z,2.00
2022-11-05T11:12:43.124Z,2.13
2022-11-05T11:15:32.787Z,2.00
2022-11-05T11:18:40.320Z,2.60
2022-11-05T11:21:19.792Z,1.92
2022-11-05T11:24:06.624Z,1.95
2022-11-05T11:26:41.973Z,2.53
2022-11-05T11:29:31.760Z,3.13
2022-11-05T11:32:02.575Z,2.33
2022-11-05T11:34:39.354Z,2.15
2022-11-05T11:37:26.976Z,2.33
2022-11-05T11:40:17.289Z,2.03
2022-11-05T11:42:57.598Z,1.98
2022-11-05T11:45:51.920Z,1.48
2022-11-05T11:48:36.591Z,2.08
2022-11-05T11:51:31.536Z,2.47
2022-11-05T11:54:04.413Z,2.00
2022-11-05T11:56:48.698Z,2.20
2022-11-05T12:00:02.006Z,2.00
2022-11-05T12:03:01.466Z,2.35
2022-11-05T12:06:38.626Z,2.70
2022-11-05T12:10:10.973Z,1.65
2022-11-05T12:13:20.845Z,1.70
2022-11-05T12:15:55.895Z,1.60
2022-11-05T12:18:58.531Z,2.38
2022-11-05T12:22:29.414Z,1.38
2022-11-05T12:25:40.547Z,1.10
2022-11-05T12:29:18.808Z,1.42
2022-11-05T12:32:45.766Z,1.60
2022-11-05T12:36:12.498Z,1.60
2022-11-05T12:39:19.418Z,2.00
2022-11-05T12:41:58.287Z,2.00
2022-11-05T12:44:58.181Z,2.15
2022-11-05T12:51:03.767Z,1.77
2022-11-05T12:54:04.216Z,1.60
2022-11-05T12:56:47.912Z,1.65
2022-11-05T12:59:39.675Z,1.98
2022-11-05T13:02:50.615Z,1.77
2022-11-05T13:05:55.752Z,1.65
2022-11-05T13:09:00.106Z,1.80
2022-11-05T13:11:52.929Z,2.63
2022-11-05T13:15:05.281Z,1.83
2022-11-05T13:17:55.002Z,2.05
2022-11-05T13:20:34.188Z,1.83
2022-11-05T13:23:29.680Z,1.77
2022-11-05T13:26:20.151Z,2.10
2022-11-05T13:29:38.349Z,1.70
2022-11-05T13:32:41.024Z,1.92
2022-11-05T13:36:11.034Z,1.90
2022-11-05T13:39:03.722Z,2.20
2022-11-05T13:43:01.466Z,1.83
2022-11-05T13:46:39.810Z,1.92
2022-11-05T13:49:53.928Z,2.75
2022-11-05T13:53:13.488Z,1.77
2022-11-05T13:56:15.468Z,2.88
2022-11-05T13:59:14.979Z,1.80
2022-11-05T14:02:05.587Z,2.40
2022-11-05T14:05:00.691Z,1.85
2022-11-05T14:07:46.204Z,2.13
2022-11-05T14:10:36.173Z,2.50
2022-11-05T14:13:39.402Z,2.35
2022-11-05T14:16:47.884Z,1.63
2022-11-05T14:19:21.261Z,2.38
2022-11-05T14:21:51.806Z,1.92
2022-11-05T14:24:21.641Z,2.83
2022-11-05T14:27:00.962Z,2.20
2022-11-05T14:29:45.034Z,2.05
2022-11-05T14:32:27.048Z,2.53
2022-11-05T14:35:33.546Z,1.88
2022-11-05T14:38:19.979Z,2.40
2022-11-05T14:41:01.635Z,2.60
2022-11-05T14:43:36.309Z,2.10
2022-11-05T14:46:07.579Z,2.03
2022-11-05T14:48:58.408Z,2.42
2022-11-05T14:51:51.363Z,2.10
2022-11-05T14:54:58.952Z,2.05
2022-11-05T14:57:43.816Z,2.00
2022-11-05T15:00:40.644Z,1.98
2022-11-05T15:03:45.532Z,1.63
2022-11-05T15:06:37.180Z,1.75
2022-11-05T15:09:25.738Z,2.22
2022-11-05T15:11:55.563Z,1.92
2022-11-05T15:14:48.169Z,2.10
2022-11-05T15:17:30.272Z,2.25
2022-11-05T15:20:37.283Z,2.00
2022-11-05T15:23:25.559Z,2.22
2022-11-05T15:26:22.197Z,2.30
2022-11-05T15:28:57.103Z,4.25
2022-11-05T15:31:41.176Z,3.83
2022-11-05T15:34:35.684Z,3.30
2022-11-05T15:37:11.580Z,4.43
2022-11-05T15:39:47.679Z,3.30
2022-11-05T15:42:26.351Z,4.47
2022-11-05T15:44:59.659Z,4.50
2022-11-05T15:47:34.911Z,4.40
2022-11-05T15:50:17.456Z,3.75
2022-11-05T15:52:54.813Z,3.28
2022-11-05T15:55:26.448Z,2.65
2022-11-05T15:58:05.692Z,3.13
2022-11-05T16:00:37.553Z,2.53
2022-11-05T16:03:29.419Z,2.42
2022-11-05T16:06:02.716Z,2.03
2022-11-05T16:08:32.052Z,2.22
2022-11-05T16:11:02.354Z,2.13
2022-11-05T16:13:41.695Z,2.28
2022-11-05T16:16:15.001Z,2.17
2022-11-05T16:18:45.971Z,2.00
2022-11-05T16:21:22.791Z,2.58
2022-11-05T16:24:00.673Z,2.15
2022-11-05T16:29:51.471Z,2.78
2022-11-05T16:32:31.817Z,2.47
2022-11-05T16:35:07.722Z,2.60
2022-11-05T16:37:46.421Z,3.17
2022-11-05T16:40:25.613Z,2.70
2022-11-05T16:42:55.263Z,3.35
2022-11-05T16:45:25.673Z,4.43
2022-11-05T16:47:55.689Z,5.30
2022-11-05T16:50:35.427Z,4.60
2022-11-05T16:53:08.347Z,4.13
2022-11-05T16:55:42.797Z,4.03
2022-11-05T16:58:26.851Z,3.15
2022-11-05T17:01:11.461Z,5.28
2022-11-05T17:03:41.741Z,4.00
2022-11-05T17:06:15.165Z,3.40
2022-11-05T17:08:47.287Z,4.53
2022-11-05T17:11:21.334Z,3.67
2022-11-05T17:13:51.515Z,3.20
2022-11-05T17:16:21.788Z,3.58
2022-11-05T17:18:51.745Z,4.07
2022-11-05T17:21:21.831Z,2.20
2022-11-05T17:23:51.889Z,2.83
2022-11-05T17:26:22.858Z,2.45
2022-11-05T17:28:52.920Z,2.47
2022-11-05T17:31:22.915Z,2.88
2022-11-05T17:33:58.338Z,2.35
2022-11-05T17:36:28.310Z,2.28
2022-11-05T17:38:58.295Z,3.15
2022-11-05T17:41:28.356Z,3.22
2022-11-05T17:43:58.738Z,2.88
2022-11-05T17:46:28.750Z,3.17
2022-11-05T17:48:58.695Z,2.92
2022-11-05T17:51:28.731Z,3.28
2022-11-05T17:53:58.726Z,3.70
2022-11-05T17:56:34.386Z,4.20
2022-11-05T17:59:21.263Z,4.53
2022-11-05T18:01:53.551Z,4.28
2022-11-05T18:04:24.153Z,4.93
2022-11-05T18:06:53.792Z,4.88
2022-11-05T18:09:23.260Z,4.50
2022-11-05T18:11:53.168Z,4.78
2022-11-05T18:14:24.227Z,5.28
2022-11-05T18:17:00.178Z,5.85
2022-11-05T18:19:29.813Z,6.13
2022-11-05T18:21:59.818Z,7.28
2022-11-05T18:24:29.496Z,8.60
2022-11-05T18:26:59.329Z,9.43
2022-11-05T18:29:29.368Z,9.02
2022-11-05T18:31:59.182Z,10.35
2022-11-05T18:34:28.919Z,9.77
2022-11-05T18:36:58.702Z,8.60
2022-11-05T18:39:28.811Z,9.60
2022-11-05T18:41:58.342Z,10.13
2022-11-05T18:44:28.237Z,10.00
2022-11-05T18:46:58.845Z,11.20
2022-11-05T18:49:29.054Z,11.25
2022-11-05T18:51:59.192Z,10.82
2022-11-05T18:54:29.023Z,12.13
2022-11-05T18:56:58.779Z,10.80
2022-11-05T18:59:39.067Z,10.48
2022-11-05T19:02:11.629Z,10.05
2022-11-05T19:05:00.256Z,9.80
2022-11-05T19:07:37.504Z,12.10
2022-11-05T19:10:06.683Z,13.40
2022-11-05T19:12:36.551Z,14.13
2022-11-05T19:15:08.159Z,15.95
2022-11-05T19:17:38.158Z,13.57
2022-11-05T19:20:09.630Z,14.18
2022-11-05T19:22:39.565Z,15.13
2022-11-05T19:25:09.366Z,12.50
2022-11-05T19:27:39.373Z,13.55
2022-11-05T19:30:10.351Z,13.90
2022-11-05T19:32:40.044Z,13.32
2022-11-05T19:35:12.822Z,12.18
2022-11-05T19:37:39.862Z,12.32
2022-11-05T19:40:11.542Z,12.07
2022-11-05T19:42:41.507Z,12.48
2022-11-05T19:45:30.837Z,11.93
2022-11-05T19:47:58.701Z,14.18
2022-11-05T19:50:28.744Z,12.02
2022-11-05T19:52:58.327Z,12.93
2022-11-05T19:55:28.288Z,12.75
2022-11-05T19:57:58.177Z,12.90
2022-11-05T20:00:27.907Z,14.38
2022-11-05T20:02:57.882Z,13.10
2022-11-05T20:05:28.087Z,12.25
2022-11-05T20:07:57.818Z,13.50
2022-11-05T20:10:27.663Z,13.13
2022-11-05T20:13:00.513Z,12.10
2022-11-05T20:15:30.509Z,13.05
2022-11-05T20:18:00.249Z,12.25
2022-11-05T20:20:29.926Z,12.25
2022-11-05T20:22:59.810Z,11.70
2022-11-05T20:25:26.897Z,11.20
2022-11-05T20:27:57.664Z,10.90
2022-11-05T20:30:28.013Z,9.95
2022-11-05T20:32:58.594Z,9.63
2022-11-05T20:35:31.621Z,9.90
2022-11-05T20:38:01.006Z,9.85
2022-11-05T20:40:30.733Z,8.02
2022-11-05T20:43:00.703Z,8.38
2022-11-05T20:45:30.732Z,8.23
2022-11-05T20:48:00.434Z,9.35
2022-11-05T20:50:30.378Z,8.02
2022-11-05T20:53:00.478Z,7.97
2022-11-05T20:55:30.069Z,7.63
2022-11-05T20:58:00.011Z,7.30
2022-11-05T21:00:29.521Z,7.93
2022-11-05T21:02:59.434Z,7.53
2022-11-05T21:05:35.184Z,7.43
2022-11-05T21:08:05.894Z,7.80
2022-11-05T21:10:35.936Z,7.82
2022-11-05T21:13:06.014Z,7.70
2022-11-05T21:15:36.210Z,7.50
2022-11-05T21:18:06.250Z,7.53
2022-11-05T21:20:40.400Z,7.57
2022-11-05T21:23:11.218Z,7.80
2022-11-05T21:25:44.134Z,7.85
2022-11-05T21:28:15.654Z,7.05
2022-11-05T21:30:49.292Z,7.00
2022-11-05T21:33:19.350Z,7.38
2022-11-05T21:35:49.175Z,6.90
2022-11-05T21:38:20.859Z,6.90
2022-11-05T21:40:49.914Z,7.65
2022-11-05T21:43:19.005Z,8.00
2022-11-05T21:45:48.693Z,8.18
2022-11-05T21:48:18.536Z,7.70
2022-11-05T21:51:11.804Z,7.53
2022-11-05T21:54:00.825Z,7.03
2022-11-05T21:56:50.382Z,7.18
2022-11-05T21:59:43.198Z,7.43
2022-11-05T22:02:21.147Z,7.15
2022-11-05T22:04:55.132Z,5.97
2022-11-05T22:07:35.626Z,7.43
2022-11-05T22:10:16.090Z,6.65
2022-11-05T22:12:46.850Z,6.68
2022-11-05T22:15:17.006Z,7.15
2022-11-05T22:17:51.356Z,6.35
2022-11-05T22:20:21.494Z,6.80
2022-11-05T22:22:52.577Z,6.43
2022-11-05T22:25:23.183Z,6.78
2022-11-05T22:27:53.134Z,6.38
2022-11-05T22:30:23.161Z,6.47
2022-11-05T22:32:53.204Z,6.40
2022-11-05T22:35:23.316Z,5.72
2022-11-05T22:37:53.283Z,6.60
2022-11-05T22:40:24.155Z,6.47
2022-11-05T22:42:54.325Z,6.20
2022-11-05T22:45:24.390Z,6.60
2022-11-05T22:47:54.457Z,6.20
2022-11-05T22:50:24.470Z,6.43
2022-11-05T22:52:54.545Z,6.53
2022-11-05T22:55:24.501Z,6.40
2022-11-05T22:57:54.535Z,6.47
2022-11-05T23:00:38.511Z,6.10
2022-11-05T23:03:08.643Z,7.35
2022-11-05T23:05:38.850Z,6.25
2022-11-05T23:08:29.022Z,6.80
2022-11-05T23:11:27.798Z,7.43
2022-11-05T23:13:57.895Z,8.43
2022-11-05T23:16:47.084Z,7.70
2022-11-05T23:19:33.129Z,8.15
2022-11-05T23:22:22.084Z,8.63
2022-11-05T23:24:52.180Z,8.15
2022-11-05T23:27:22.448Z,7.88
2022-11-05T23:29:52.500Z,7.40
2022-11-05T23:32:25.187Z,7.00
2022-11-05T23:34:58.952Z,7.88
2022-11-05T23:37:50.790Z,7.78
2022-11-05T23:40:28.124Z,6.68
2022-11-05T23:43:17.033Z,7.47
2022-11-05T23:45:59.246Z,7.13
2022-11-05T23:48:38.116Z,7.80
2022-11-05T23:51:12.356Z,6.72
2022-11-05T23:53:42.413Z,7.60
2022-11-05T23:56:16.148Z,7.65
2022-11-05T23:58:46.625Z,7.60
